sensor_id;sensor_type;location;lat;lon;timestamp;P1;durP1;ratioP1;P2;durP2;ratioP2
6203;SDS011;3135;42.602;23.468;2023-12-20T00:01:46;14.73;;;5.93;;
6203;SDS011;3135;42.602;23.468;2023-12-20T00:04:12;41.58;;;13.75;;
6203;SDS011;3135;42.602;23.468;2023-12-20T00:06:37;18.40;;;7.47;;
6203;SDS011;3135;42.602;23.468;2023-12-20T00:09:02;16.37;;;6.83;;
6203;SDS011;3135;42.602;23.468;2023-12-20T00:11:28;15.83;;;6.27;;
6203;SDS011;3135;42.602;23.468;2023-12-20T00:13:53;11.53;;;5.30;;
6203;SDS011;3135;42.602;23.468;2023-12-20T00:16:19;9.57;;;5.33;;
6203;SDS011;3135;42.602;23.468;2023-12-20T00:18:44;7.43;;;3.90;;
6203;SDS011;3135;42.602;23.468;2023-12-20T00:21:10;7.27;;;3.83;;
6203;SDS011;3135;42.602;23.468;2023-12-20T00:23:35;8.23;;;4.30;;
6203;SDS011;3135;42.602;23.468;2023-12-20T00:26:00;7.25;;;3.38;;
6203;SDS011;3135;42.602;23.468;2023-12-20T00:28:26;6.57;;;3.80;;
6203;SDS011;3135;42.602;23.468;2023-12-20T00:30:51;5.47;;;2.77;;
6203;SDS011;3135;42.602;23.468;2023-12-20T00:33:17;5.60;;;3.10;;
6203;SDS011;3135;42.602;23.468;2023-12-20T00:35:42;4.40;;;2.80;;
6203;SDS011;3135;42.602;23.468;2023-12-20T00:38:08;4.47;;;2.70;;
6203;SDS011;3135;42.602;23.468;2023-12-20T00:40:34;3.55;;;2.35;;
6203;SDS011;3135;42.602;23.468;2023-12-20T00:42:59;6.93;;;3.00;;
6203;SDS011;3135;42.602;23.468;2023-12-20T00:45:25;4.93;;;2.90;;
6203;SDS011;3135;42.602;23.468;2023-12-20T00:47:50;5.20;;;3.03;;
6203;SDS011;3135;42.602;23.468;2023-12-20T00:50:16;5.80;;;2.90;;
6203;SDS011;3135;42.602;23.468;2023-12-20T00:52:41;16.53;;;5.97;;
6203;SDS011;3135;42.602;23.468;2023-12-20T00:55:07;126.97;;;32.37;;
6203;SDS011;3135;42.602;23.468;2023-12-20T00:57:32;94.32;;;25.42;;
6203;SDS011;3135;42.602;23.468;2023-12-20T00:59:58;34.80;;;10.82;;
6203;SDS011;3135;42.602;23.468;2023-12-20T01:02:23;13.00;;;5.43;;
6203;SDS011;3135;42.602;23.468;2023-12-20T01:04:49;13.07;;;5.43;;
6203;SDS011;3135;42.602;23.468;2023-12-20T01:07:14;16.20;;;8.17;;
6203;SDS011;3135;42.602;23.468;2023-12-20T01:09:40;11.97;;;5.47;;
6203;SDS011;3135;42.602;23.468;2023-12-20T01:12:05;9.73;;;4.38;;
6203;SDS011;3135;42.602;23.468;2023-12-20T01:14:31;5.40;;;3.20;;
6203;SDS011;3135;42.602;23.468;2023-12-20T01:16:56;23.30;;;8.90;;
6203;SDS011;3135;42.602;23.468;2023-12-20T01:19:21;22.83;;;8.70;;
6203;SDS011;3135;42.602;23.468;2023-12-20T01:21:48;15.27;;;8.75;;
6203;SDS011;3135;42.602;23.468;2023-12-20T01:24:14;7.40;;;3.60;;
6203;SDS011;3135;42.602;23.468;2023-12-20T01:26:39;5.07;;;2.43;;
6203;SDS011;3135;42.602;23.468;2023-12-20T01:29:05;4.27;;;2.73;;
6203;SDS011;3135;42.602;23.468;2023-12-20T01:31:30;4.90;;;2.50;;
6203;SDS011;3135;42.602;23.468;2023-12-20T01:33:56;3.17;;;2.20;;
6203;SDS011;3135;42.602;23.468;2023-12-20T01:36:21;3.08;;;1.80;;
6203;SDS011;3135;42.602;23.468;2023-12-20T01:38:46;6.00;;;3.13;;
6203;SDS011;3135;42.602;23.468;2023-12-20T01:41:12;10.43;;;5.33;;
6203;SDS011;3135;42.602;23.468;2023-12-20T01:43:37;13.47;;;7.20;;
6203;SDS011;3135;42.602;23.468;2023-12-20T01:46:03;10.63;;;4.40;;
6203;SDS011;3135;42.602;23.468;2023-12-20T01:48:29;9.77;;;4.60;;
6203;SDS011;3135;42.602;23.468;2023-12-20T01:50:56;9.45;;;4.47;;
6203;SDS011;3135;42.602;23.468;2023-12-20T01:53:23;7.37;;;4.00;;
6203;SDS011;3135;42.602;23.468;2023-12-20T01:55:50;6.93;;;3.05;;
6203;SDS011;3135;42.602;23.468;2023-12-20T01:58:19;4.93;;;2.72;;
6203;SDS011;3135;42.602;23.468;2023-12-20T02:00:45;4.23;;;2.80;;
6203;SDS011;3135;42.602;23.468;2023-12-20T02:03:10;20.98;;;6.95;;
6203;SDS011;3135;42.602;23.468;2023-12-20T02:05:36;18.73;;;6.93;;
6203;SDS011;3135;42.602;23.468;2023-12-20T02:08:03;8.27;;;3.80;;
6203;SDS011;3135;42.602;23.468;2023-12-20T02:10:29;5.93;;;2.83;;
6203;SDS011;3135;42.602;23.468;2023-12-20T02:12:55;7.25;;;3.60;;
6203;SDS011;3135;42.602;23.468;2023-12-20T02:15:20;6.67;;;3.50;;
6203;SDS011;3135;42.602;23.468;2023-12-20T02:17:46;9.30;;;5.03;;
6203;SDS011;3135;42.602;23.468;2023-12-20T02:20:13;11.48;;;5.55;;
6203;SDS011;3135;42.602;23.468;2023-12-20T02:22:38;12.87;;;6.30;;
6203;SDS011;3135;42.602;23.468;2023-12-20T02:25:04;13.57;;;6.33;;
6203;SDS011;3135;42.602;23.468;2023-12-20T02:27:29;14.95;;;6.63;;
6203;SDS011;3135;42.602;23.468;2023-12-20T02:29:55;16.17;;;6.50;;
6203;SDS011;3135;42.602;23.468;2023-12-20T02:32:21;14.33;;;6.50;;
6203;SDS011;3135;42.602;23.468;2023-12-20T02:34:51;13.20;;;6.57;;
6203;SDS011;3135;42.602;23.468;2023-12-20T02:37:16;14.60;;;6.90;;
6203;SDS011;3135;42.602;23.468;2023-12-20T02:39:41;17.00;;;7.60;;
6203;SDS011;3135;42.602;23.468;2023-12-20T02:42:09;19.80;;;7.85;;
6203;SDS011;3135;42.602;23.468;2023-12-20T02:44:34;14.53;;;6.87;;
6203;SDS011;3135;42.602;23.468;2023-12-20T02:47:00;19.17;;;7.50;;
6203;SDS011;3135;42.602;23.468;2023-12-20T02:49:25;12.93;;;5.90;;
6203;SDS011;3135;42.602;23.468;2023-12-20T02:51:50;12.50;;;6.05;;
6203;SDS011;3135;42.602;23.468;2023-12-20T02:54:16;11.17;;;5.43;;
6203;SDS011;3135;42.602;23.468;2023-12-20T02:56:41;13.53;;;6.13;;
6203;SDS011;3135;42.602;23.468;2023-12-20T02:59:07;13.93;;;5.50;;
6203;SDS011;3135;42.602;23.468;2023-12-20T03:01:33;135.52;;;32.47;;
6203;SDS011;3135;42.602;23.468;2023-12-20T03:03:59;67.30;;;20.05;;
6203;SDS011;3135;42.602;23.468;2023-12-20T03:06:25;33.72;;;12.48;;
6203;SDS011;3135;42.602;23.468;2023-12-20T03:08:51;28.13;;;10.23;;
6203;SDS011;3135;42.602;23.468;2023-12-20T03:11:16;27.30;;;10.70;;
6203;SDS011;3135;42.602;23.468;2023-12-20T03:13:42;24.93;;;10.30;;
6203;SDS011;3135;42.602;23.468;2023-12-20T03:16:11;23.87;;;9.37;;
6203;SDS011;3135;42.602;23.468;2023-12-20T03:18:37;28.35;;;10.65;;
6203;SDS011;3135;42.602;23.468;2023-12-20T03:21:02;25.70;;;9.53;;
6203;SDS011;3135;42.602;23.468;2023-12-20T03:23:29;25.65;;;10.75;;
6203;SDS011;3135;42.602;23.468;2023-12-20T03:25:55;22.50;;;9.95;;
6203;SDS011;3135;42.602;23.468;2023-12-20T03:28:21;22.63;;;9.18;;
6203;SDS011;3135;42.602;23.468;2023-12-20T03:30:47;21.15;;;10.15;;
6203;SDS011;3135;42.602;23.468;2023-12-20T03:33:13;20.47;;;8.47;;
6203;SDS011;3135;42.602;23.468;2023-12-20T03:35:38;18.70;;;7.60;;
6203;SDS011;3135;42.602;23.468;2023-12-20T03:38:04;18.58;;;8.57;;
6203;SDS011;3135;42.602;23.468;2023-12-20T03:40:29;19.38;;;7.90;;
6203;SDS011;3135;42.602;23.468;2023-12-20T03:42:55;18.90;;;7.88;;
6203;SDS011;3135;42.602;23.468;2023-12-20T03:45:20;73.50;;;21.83;;
6203;SDS011;3135;42.602;23.468;2023-12-20T03:47:45;48.20;;;15.33;;
6203;SDS011;3135;42.602;23.468;2023-12-20T03:50:11;28.03;;;10.37;;
6203;SDS011;3135;42.602;23.468;2023-12-20T03:52:36;22.53;;;7.90;;
6203;SDS011;3135;42.602;23.468;2023-12-20T03:55:02;15.52;;;7.60;;
6203;SDS011;3135;42.602;23.468;2023-12-20T03:57:28;20.52;;;7.80;;
6203;SDS011;3135;42.602;23.468;2023-12-20T03:59:53;28.57;;;11.97;;
6203;SDS011;3135;42.602;23.468;2023-12-20T04:02:18;28.17;;;11.37;;
6203;SDS011;3135;42.602;23.468;2023-12-20T04:04:44;34.10;;;14.07;;
6203;SDS011;3135;42.602;23.468;2023-12-20T04:07:09;37.83;;;17.00;;
6203;SDS011;3135;42.602;23.468;2023-12-20T04:09:35;21.00;;;10.13;;
6203;SDS011;3135;42.602;23.468;2023-12-20T04:12:00;21.55;;;8.85;;
6203;SDS011;3135;42.602;23.468;2023-12-20T04:14:26;12.77;;;6.78;;
6203;SDS011;3135;42.602;23.468;2023-12-20T04:16:52;17.00;;;7.87;;
6203;SDS011;3135;42.602;23.468;2023-12-20T04:19:17;14.48;;;6.75;;
6203;SDS011;3135;42.602;23.468;2023-12-20T04:21:43;12.40;;;6.70;;
6203;SDS011;3135;42.602;23.468;2023-12-20T04:24:08;15.73;;;7.33;;
6203;SDS011;3135;42.602;23.468;2023-12-20T04:26:33;23.07;;;8.33;;
6203;SDS011;3135;42.602;23.468;2023-12-20T04:28:59;19.17;;;8.30;;
6203;SDS011;3135;42.602;23.468;2023-12-20T04:31:24;27.60;;;10.63;;
6203;SDS011;3135;42.602;23.468;2023-12-20T04:33:50;31.77;;;11.80;;
6203;SDS011;3135;42.602;23.468;2023-12-20T04:36:15;23.63;;;10.40;;
6203;SDS011;3135;42.602;23.468;2023-12-20T04:38:40;55.28;;;16.73;;
6203;SDS011;3135;42.602;23.468;2023-12-20T04:41:06;28.02;;;12.05;;
6203;SDS011;3135;42.602;23.468;2023-12-20T04:43:31;23.03;;;10.17;;
6203;SDS011;3135;42.602;23.468;2023-12-20T04:45:57;26.07;;;10.70;;
6203;SDS011;3135;42.602;23.468;2023-12-20T04:48:22;18.37;;;8.30;;
6203;SDS011;3135;42.602;23.468;2023-12-20T04:50:48;19.17;;;8.18;;
6203;SDS011;3135;42.602;23.468;2023-12-20T04:53:13;15.35;;;7.10;;
6203;SDS011;3135;42.602;23.468;2023-12-20T04:55:39;13.73;;;5.93;;
6203;SDS011;3135;42.602;23.468;2023-12-20T04:58:04;12.03;;;5.47;;
6203;SDS011;3135;42.602;23.468;2023-12-20T05:00:30;10.83;;;5.70;;
6203;SDS011;3135;42.602;23.468;2023-12-20T05:02:55;14.57;;;7.57;;
6203;SDS011;3135;42.602;23.468;2023-12-20T05:05:21;12.83;;;6.70;;
6203;SDS011;3135;42.602;23.468;2023-12-20T05:07:46;13.40;;;7.00;;
6203;SDS011;3135;42.602;23.468;2023-12-20T05:10:11;13.07;;;6.32;;
6203;SDS011;3135;42.602;23.468;2023-12-20T05:12:37;14.07;;;5.70;;
6203;SDS011;3135;42.602;23.468;2023-12-20T05:15:03;17.00;;;5.47;;
6203;SDS011;3135;42.602;23.468;2023-12-20T05:17:30;14.35;;;5.45;;
6203;SDS011;3135;42.602;23.468;2023-12-20T05:19:55;14.90;;;5.50;;
6203;SDS011;3135;42.602;23.468;2023-12-20T05:22:20;14.60;;;6.37;;
6203;SDS011;3135;42.602;23.468;2023-12-20T05:24:46;24.63;;;10.60;;
6203;SDS011;3135;42.602;23.468;2023-12-20T05:27:12;23.30;;;9.37;;
6203;SDS011;3135;42.602;23.468;2023-12-20T05:29:37;16.53;;;7.40;;
6203;SDS011;3135;42.602;23.468;2023-12-20T05:32:02;15.87;;;7.50;;
6203;SDS011;3135;42.602;23.468;2023-12-20T05:34:29;22.10;;;9.32;;
6203;SDS011;3135;42.602;23.468;2023-12-20T05:36:55;26.27;;;12.52;;
6203;SDS011;3135;42.602;23.468;2023-12-20T05:39:21;18.17;;;8.40;;
6203;SDS011;3135;42.602;23.468;2023-12-20T05:41:46;150.55;;;36.85;;
6203;SDS011;3135;42.602;23.468;2023-12-20T05:44:12;53.97;;;17.90;;
6203;SDS011;3135;42.602;23.468;2023-12-20T05:46:38;36.25;;;12.82;;
6203;SDS011;3135;42.602;23.468;2023-12-20T05:49:05;23.92;;;7.90;;
6203;SDS011;3135;42.602;23.468;2023-12-20T05:51:30;40.70;;;10.32;;
6203;SDS011;3135;42.602;23.468;2023-12-20T05:53:56;10.02;;;4.75;;
6203;SDS011;3135;42.602;23.468;2023-12-20T05:56:21;7.00;;;3.40;;
6203;SDS011;3135;42.602;23.468;2023-12-20T05:58:47;10.00;;;4.17;;
6203;SDS011;3135;42.602;23.468;2023-12-20T06:01:14;7.23;;;4.10;;
6203;SDS011;3135;42.602;23.468;2023-12-20T06:03:42;10.63;;;4.88;;
6203;SDS011;3135;42.602;23.468;2023-12-20T06:06:08;17.25;;;6.68;;
6203;SDS011;3135;42.602;23.468;2023-12-20T06:08:33;12.27;;;6.25;;
6203;SDS011;3135;42.602;23.468;2023-12-20T06:10:59;14.85;;;6.03;;
6203;SDS011;3135;42.602;23.468;2023-12-20T06:13:25;106.90;;;26.17;;
6203;SDS011;3135;42.602;23.468;2023-12-20T06:15:51;233.88;;;49.28;;
6203;SDS011;3135;42.602;23.468;2023-12-20T06:18:17;247.27;;;52.23;;
6203;SDS011;3135;42.602;23.468;2023-12-20T06:20:42;109.75;;;27.55;;
6203;SDS011;3135;42.602;23.468;2023-12-20T06:23:07;74.93;;;19.17;;
6203;SDS011;3135;42.602;23.468;2023-12-20T06:25:33;77.80;;;19.27;;
6203;SDS011;3135;42.602;23.468;2023-12-20T06:27:58;52.30;;;14.90;;
6203;SDS011;3135;42.602;23.468;2023-12-20T06:30:24;26.73;;;10.03;;
6203;SDS011;3135;42.602;23.468;2023-12-20T06:32:50;35.65;;;12.07;;
6203;SDS011;3135;42.602;23.468;2023-12-20T06:35:16;29.00;;;11.27;;
6203;SDS011;3135;42.602;23.468;2023-12-20T06:37:41;32.67;;;12.27;;
6203;SDS011;3135;42.602;23.468;2023-12-20T06:40:09;30.58;;;11.68;;
6203;SDS011;3135;42.602;23.468;2023-12-20T06:42:35;31.52;;;11.60;;
6203;SDS011;3135;42.602;23.468;2023-12-20T06:45:01;26.90;;;10.67;;
6203;SDS011;3135;42.602;23.468;2023-12-20T06:47:26;30.30;;;12.47;;
6203;SDS011;3135;42.602;23.468;2023-12-20T06:49:52;91.13;;;31.13;;
6203;SDS011;3135;42.602;23.468;2023-12-20T06:52:17;62.83;;;21.75;;
6203;SDS011;3135;42.602;23.468;2023-12-20T06:54:43;49.87;;;17.37;;
6203;SDS011;3135;42.602;23.468;2023-12-20T06:57:08;50.17;;;19.03;;
6203;SDS011;3135;42.602;23.468;2023-12-20T06:59:38;54.17;;;18.35;;
6203;SDS011;3135;42.602;23.468;2023-12-20T07:02:05;45.47;;;17.38;;
6203;SDS011;3135;42.602;23.468;2023-12-20T07:04:30;45.37;;;16.00;;
6203;SDS011;3135;42.602;23.468;2023-12-20T07:06:56;35.53;;;13.13;;
6203;SDS011;3135;42.602;23.468;2023-12-20T07:09:22;42.05;;;16.42;;
6203;SDS011;3135;42.602;23.468;2023-12-20T07:11:48;41.40;;;15.77;;
6203;SDS011;3135;42.602;23.468;2023-12-20T07:14:14;37.33;;;14.33;;
6203;SDS011;3135;42.602;23.468;2023-12-20T07:16:39;29.25;;;11.20;;
6203;SDS011;3135;42.602;23.468;2023-12-20T07:19:05;35.47;;;13.53;;
6203;SDS011;3135;42.602;23.468;2023-12-20T07:21:31;35.35;;;13.35;;
6203;SDS011;3135;42.602;23.468;2023-12-20T07:23:57;38.60;;;13.63;;
6203;SDS011;3135;42.602;23.468;2023-12-20T07:26:22;36.60;;;14.45;;
6203;SDS011;3135;42.602;23.468;2023-12-20T07:28:48;34.13;;;13.43;;
6203;SDS011;3135;42.602;23.468;2023-12-20T07:31:15;29.77;;;12.27;;
6203;SDS011;3135;42.602;23.468;2023-12-20T07:33:41;61.67;;;20.10;;
6203;SDS011;3135;42.602;23.468;2023-12-20T07:36:06;72.10;;;26.15;;
6203;SDS011;3135;42.602;23.468;2023-12-20T07:38:32;38.45;;;16.77;;
6203;SDS011;3135;42.602;23.468;2023-12-20T07:40:58;44.70;;;16.77;;
6203;SDS011;3135;42.602;23.468;2023-12-20T07:43:23;40.30;;;16.35;;
6203;SDS011;3135;42.602;23.468;2023-12-20T07:45:48;39.55;;;15.40;;
6203;SDS011;3135;42.602;23.468;2023-12-20T07:48:14;77.28;;;23.52;;
6203;SDS011;3135;42.602;23.468;2023-12-20T07:50:39;63.77;;;20.17;;
6203;SDS011;3135;42.602;23.468;2023-12-20T07:53:05;70.40;;;21.93;;
6203;SDS011;3135;42.602;23.468;2023-12-20T07:55:30;59.13;;;20.17;;
6203;SDS011;3135;42.602;23.468;2023-12-20T07:57:57;61.83;;;22.33;;
6203;SDS011;3135;42.602;23.468;2023-12-20T08:00:22;67.60;;;23.33;;
6203;SDS011;3135;42.602;23.468;2023-12-20T08:02:48;67.43;;;22.63;;
6203;SDS011;3135;42.602;23.468;2023-12-20T08:05:13;75.90;;;27.73;;
6203;SDS011;3135;42.602;23.468;2023-12-20T08:07:39;96.07;;;35.10;;
6203;SDS011;3135;42.602;23.468;2023-12-20T08:10:04;65.07;;;22.87;;
6203;SDS011;3135;42.602;23.468;2023-12-20T08:12:30;69.25;;;25.02;;
6203;SDS011;3135;42.602;23.468;2023-12-20T08:14:56;70.97;;;23.17;;
6203;SDS011;3135;42.602;23.468;2023-12-20T08:17:22;117.47;;;40.97;;
6203;SDS011;3135;42.602;23.468;2023-12-20T08:19:48;150.57;;;49.25;;
6203;SDS011;3135;42.602;23.468;2023-12-20T08:22:14;165.13;;;52.07;;
6203;SDS011;3135;42.602;23.468;2023-12-20T08:24:39;137.75;;;46.15;;
6203;SDS011;3135;42.602;23.468;2023-12-20T08:27:05;119.93;;;41.22;;
6203;SDS011;3135;42.602;23.468;2023-12-20T08:29:30;101.63;;;33.87;;
6203;SDS011;3135;42.602;23.468;2023-12-20T08:31:56;87.23;;;27.47;;
6203;SDS011;3135;42.602;23.468;2023-12-20T08:34:22;76.03;;;24.02;;
6203;SDS011;3135;42.602;23.468;2023-12-20T08:36:48;70.82;;;22.58;;
6203;SDS011;3135;42.602;23.468;2023-12-20T08:39:15;72.63;;;23.40;;
6203;SDS011;3135;42.602;23.468;2023-12-20T08:41:40;66.73;;;22.30;;
6203;SDS011;3135;42.602;23.468;2023-12-20T08:44:06;69.73;;;22.77;;
6203;SDS011;3135;42.602;23.468;2023-12-20T08:46:31;65.10;;;23.38;;
6203;SDS011;3135;42.602;23.468;2023-12-20T08:48:56;73.03;;;25.35;;
6203;SDS011;3135;42.602;23.468;2023-12-20T08:51:22;80.20;;;28.33;;
6203;SDS011;3135;42.602;23.468;2023-12-20T08:53:50;80.63;;;27.45;;
6203;SDS011;3135;42.602;23.468;2023-12-20T08:56:16;74.07;;;26.97;;
6203;SDS011;3135;42.602;23.468;2023-12-20T08:58:43;78.00;;;27.85;;
6203;SDS011;3135;42.602;23.468;2023-12-20T09:01:08;68.82;;;26.88;;
6203;SDS011;3135;42.602;23.468;2023-12-20T09:03:34;71.33;;;25.73;;
6203;SDS011;3135;42.602;23.468;2023-12-20T09:05:59;80.00;;;26.97;;
6203;SDS011;3135;42.602;23.468;2023-12-20T09:08:25;84.03;;;25.65;;
6203;SDS011;3135;42.602;23.468;2023-12-20T09:10:51;83.63;;;26.40;;
6203;SDS011;3135;42.602;23.468;2023-12-20T09:13:16;87.93;;;26.50;;
6203;SDS011;3135;42.602;23.468;2023-12-20T09:15:41;89.93;;;26.57;;
6203;SDS011;3135;42.602;23.468;2023-12-20T09:18:07;111.43;;;33.03;;
6203;SDS011;3135;42.602;23.468;2023-12-20T09:20:33;83.78;;;25.50;;
6203;SDS011;3135;42.602;23.468;2023-12-20T09:22:59;86.88;;;25.55;;
6203;SDS011;3135;42.602;23.468;2023-12-20T09:25:25;87.60;;;26.83;;
6203;SDS011;3135;42.602;23.468;2023-12-20T09:27:51;82.43;;;26.75;;
6203;SDS011;3135;42.602;23.468;2023-12-20T09:30:17;105.25;;;32.15;;
6203;SDS011;3135;42.602;23.468;2023-12-20T09:32:43;145.90;;;40.50;;
6203;SDS011;3135;42.602;23.468;2023-12-20T09:35:09;131.98;;;39.85;;
6203;SDS011;3135;42.602;23.468;2023-12-20T09:37:34;163.98;;;44.40;;
6203;SDS011;3135;42.602;23.468;2023-12-20T09:39:59;158.77;;;46.05;;
6203;SDS011;3135;42.602;23.468;2023-12-20T09:42:29;185.37;;;53.80;;
6203;SDS011;3135;42.602;23.468;2023-12-20T09:45:03;195.95;;;54.50;;
6203;SDS011;3135;42.602;23.468;2023-12-20T09:47:33;179.18;;;54.63;;
6203;SDS011;3135;42.602;23.468;2023-12-20T09:50:00;183.82;;;56.33;;
6203;SDS011;3135;42.602;23.468;2023-12-20T09:52:26;160.82;;;49.50;;
6203;SDS011;3135;42.602;23.468;2023-12-20T09:54:52;165.33;;;51.00;;
6203;SDS011;3135;42.602;23.468;2023-12-20T09:57:19;179.47;;;50.80;;
6203;SDS011;3135;42.602;23.468;2023-12-20T09:59:45;182.82;;;53.13;;
6203;SDS011;3135;42.602;23.468;2023-12-20T10:02:12;163.05;;;51.88;;
6203;SDS011;3135;42.602;23.468;2023-12-20T10:04:42;174.90;;;55.80;;
6203;SDS011;3135;42.602;23.468;2023-12-20T10:07:11;227.68;;;69.90;;
6203;SDS011;3135;42.602;23.468;2023-12-20T10:09:37;374.33;;;93.28;;
6203;SDS011;3135;42.602;23.468;2023-12-20T10:12:04;320.83;;;83.70;;
6203;SDS011;3135;42.602;23.468;2023-12-20T10:14:30;106.90;;;34.20;;
6203;SDS011;3135;42.602;23.468;2023-12-20T10:17:01;97.50;;;30.45;;
6203;SDS011;3135;42.602;23.468;2023-12-20T10:19:30;80.50;;;27.13;;
6203;SDS011;3135;42.602;23.468;2023-12-20T10:21:57;88.18;;;27.75;;
6203;SDS011;3135;42.602;23.468;2023-12-20T10:24:24;76.63;;;25.77;;
6203;SDS011;3135;42.602;23.468;2023-12-20T10:27:00;85.63;;;28.27;;
6203;SDS011;3135;42.602;23.468;2023-12-20T10:29:33;87.30;;;27.83;;
6203;SDS011;3135;42.602;23.468;2023-12-20T10:32:21;81.60;;;29.05;;
6203;SDS011;3135;42.602;23.468;2023-12-20T10:34:48;77.32;;;27.25;;
6203;SDS011;3135;42.602;23.468;2023-12-20T10:37:14;84.13;;;29.33;;
6203;SDS011;3135;42.602;23.468;2023-12-20T10:39:39;118.33;;;36.73;;
6203;SDS011;3135;42.602;23.468;2023-12-20T10:42:08;174.60;;;48.55;;
6203;SDS011;3135;42.602;23.468;2023-12-20T10:44:36;198.45;;;52.25;;
6203;SDS011;3135;42.602;23.468;2023-12-20T10:47:02;215.88;;;55.55;;
6203;SDS011;3135;42.602;23.468;2023-12-20T10:49:29;214.77;;;53.63;;
6203;SDS011;3135;42.602;23.468;2023-12-20T10:51:55;175.73;;;51.35;;
6203;SDS011;3135;42.602;23.468;2023-12-20T10:54:24;101.60;;;32.10;;
6203;SDS011;3135;42.602;23.468;2023-12-20T10:56:50;104.45;;;33.38;;
6203;SDS011;3135;42.602;23.468;2023-12-20T10:59:19;94.07;;;31.58;;
6203;SDS011;3135;42.602;23.468;2023-12-20T11:01:45;119.97;;;39.70;;
6203;SDS011;3135;42.602;23.468;2023-12-20T11:04:14;100.00;;;36.63;;
6203;SDS011;3135;42.602;23.468;2023-12-20T11:06:49;95.35;;;34.40;;
6203;SDS011;3135;42.602;23.468;2023-12-20T11:09:25;101.60;;;36.08;;
6203;SDS011;3135;42.602;23.468;2023-12-20T11:12:10;86.03;;;33.05;;
6203;SDS011;3135;42.602;23.468;2023-12-20T11:14:49;127.90;;;42.97;;
6203;SDS011;3135;42.602;23.468;2023-12-20T11:17:16;128.57;;;42.70;;
6203;SDS011;3135;42.602;23.468;2023-12-20T11:22:26;106.07;;;37.72;;
6203;SDS011;3135;42.602;23.468;2023-12-20T11:24:56;123.10;;;42.17;;
6203;SDS011;3135;42.602;23.468;2023-12-20T11:27:24;85.40;;;30.40;;
6203;SDS011;3135;42.602;23.468;2023-12-20T11:29:53;70.87;;;24.33;;
6203;SDS011;3135;42.602;23.468;2023-12-20T11:34:56;67.63;;;24.23;;
6203;SDS011;3135;42.602;23.468;2023-12-20T11:37:30;68.40;;;24.73;;
6203;SDS011;3135;42.602;23.468;2023-12-20T11:40:03;66.47;;;25.63;;
6203;SDS011;3135;42.602;23.468;2023-12-20T11:42:40;77.45;;;28.13;;
6203;SDS011;3135;42.602;23.468;2023-12-20T11:45:10;79.72;;;28.65;;
6203;SDS011;3135;42.602;23.468;2023-12-20T11:47:40;84.00;;;31.88;;
6203;SDS011;3135;42.602;23.468;2023-12-20T11:50:07;115.07;;;42.60;;
6203;SDS011;3135;42.602;23.468;2023-12-20T11:52:33;101.53;;;36.13;;
6203;SDS011;3135;42.602;23.468;2023-12-20T11:54:58;102.53;;;35.20;;
6203;SDS011;3135;42.602;23.468;2023-12-20T11:57:24;108.43;;;37.40;;
6203;SDS011;3135;42.602;23.468;2023-12-20T11:59:50;119.13;;;42.53;;
6203;SDS011;3135;42.602;23.468;2023-12-20T12:02:16;107.73;;;38.10;;
6203;SDS011;3135;42.602;23.468;2023-12-20T12:04:41;79.00;;;28.53;;
6203;SDS011;3135;42.602;23.468;2023-12-20T12:07:07;82.38;;;30.25;;
6203;SDS011;3135;42.602;23.468;2023-12-20T12:09:32;77.00;;;29.20;;
6203;SDS011;3135;42.602;23.468;2023-12-20T12:11:58;90.25;;;31.25;;
6203;SDS011;3135;42.602;23.468;2023-12-20T12:14:24;83.43;;;30.03;;
6203;SDS011;3135;42.602;23.468;2023-12-20T12:16:49;37.67;;;14.18;;
6203;SDS011;3135;42.602;23.468;2023-12-20T12:19:22;13.80;;;6.83;;
6203;SDS011;3135;42.602;23.468;2023-12-20T12:21:48;8.87;;;5.20;;
6203;SDS011;3135;42.602;23.468;2023-12-20T12:24:35;6.85;;;3.28;;
6203;SDS011;3135;42.602;23.468;2023-12-20T12:27:01;6.05;;;3.50;;
6203;SDS011;3135;42.602;23.468;2023-12-20T12:29:27;29.20;;;10.35;;
6203;SDS011;3135;42.602;23.468;2023-12-20T12:31:52;42.83;;;16.83;;
6203;SDS011;3135;42.602;23.468;2023-12-20T12:34:18;48.60;;;16.90;;
6203;SDS011;3135;42.602;23.468;2023-12-20T12:36:43;55.97;;;20.88;;
6203;SDS011;3135;42.602;23.468;2023-12-20T12:39:12;59.95;;;21.52;;
6203;SDS011;3135;42.602;23.468;2023-12-20T12:41:40;66.63;;;23.85;;
6203;SDS011;3135;42.602;23.468;2023-12-20T12:44:06;47.57;;;17.53;;
6203;SDS011;3135;42.602;23.468;2023-12-20T12:46:31;50.73;;;19.13;;
6203;SDS011;3135;42.602;23.468;2023-12-20T12:48:57;29.83;;;11.68;;
6203;SDS011;3135;42.602;23.468;2023-12-20T12:51:23;7.37;;;3.60;;
6203;SDS011;3135;42.602;23.468;2023-12-20T12:53:48;26.07;;;16.57;;
6203;SDS011;3135;42.602;23.468;2023-12-20T12:56:14;22.77;;;11.17;;
6203;SDS011;3135;42.602;23.468;2023-12-20T12:58:40;18.20;;;8.60;;
6203;SDS011;3135;42.602;23.468;2023-12-20T13:01:06;13.45;;;6.28;;
6203;SDS011;3135;42.602;23.468;2023-12-20T13:03:32;10.80;;;4.80;;
6203;SDS011;3135;42.602;23.468;2023-12-20T13:05:57;28.27;;;12.33;;
6203;SDS011;3135;42.602;23.468;2023-12-20T13:08:23;40.90;;;15.73;;
6203;SDS011;3135;42.602;23.468;2023-12-20T13:10:49;49.57;;;19.73;;
6203;SDS011;3135;42.602;23.468;2023-12-20T13:13:14;58.83;;;22.23;;
6203;SDS011;3135;42.602;23.468;2023-12-20T13:15:39;70.30;;;26.60;;
6203;SDS011;3135;42.602;23.468;2023-12-20T13:18:05;71.20;;;28.20;;
6203;SDS011;3135;42.602;23.468;2023-12-20T13:20:31;74.68;;;28.27;;
6203;SDS011;3135;42.602;23.468;2023-12-20T13:22:58;71.78;;;25.73;;
6203;SDS011;3135;42.602;23.468;2023-12-20T13:25:23;100.63;;;36.33;;
6203;SDS011;3135;42.602;23.468;2023-12-20T13:27:49;104.67;;;37.07;;
6203;SDS011;3135;42.602;23.468;2023-12-20T13:30:16;119.68;;;40.05;;
6203;SDS011;3135;42.602;23.468;2023-12-20T13:32:41;121.82;;;41.92;;
6203;SDS011;3135;42.602;23.468;2023-12-20T13:35:07;109.60;;;39.07;;
6203;SDS011;3135;42.602;23.468;2023-12-20T13:37:32;108.43;;;35.65;;
6203;SDS011;3135;42.602;23.468;2023-12-20T13:39:58;65.85;;;23.05;;
6203;SDS011;3135;42.602;23.468;2023-12-20T13:42:23;72.00;;;19.75;;
6203;SDS011;3135;42.602;23.468;2023-12-20T13:44:49;79.63;;;23.35;;
6203;SDS011;3135;42.602;23.468;2023-12-20T13:47:14;79.30;;;29.67;;
6203;SDS011;3135;42.602;23.468;2023-12-20T13:49:39;13.77;;;6.40;;
6203;SDS011;3135;42.602;23.468;2023-12-20T13:52:05;14.27;;;5.47;;
6203;SDS011;3135;42.602;23.468;2023-12-20T13:54:30;55.73;;;14.57;;
6203;SDS011;3135;42.602;23.468;2023-12-20T13:56:56;61.90;;;17.60;;
6203;SDS011;3135;42.602;23.468;2023-12-20T13:59:22;21.15;;;9.93;;
6203;SDS011;3135;42.602;23.468;2023-12-20T14:01:48;17.67;;;10.07;;
6203;SDS011;3135;42.602;23.468;2023-12-20T14:04:15;11.98;;;7.85;;
6203;SDS011;3135;42.602;23.468;2023-12-20T14:06:40;4.17;;;3.30;;
6203;SDS011;3135;42.602;23.468;2023-12-20T14:09:06;15.33;;;5.57;;
6203;SDS011;3135;42.602;23.468;2023-12-20T14:11:31;32.87;;;12.60;;
6203;SDS011;3135;42.602;23.468;2023-12-20T14:13:57;30.40;;;14.23;;
6203;SDS011;3135;42.602;23.468;2023-12-20T14:16:26;21.10;;;9.07;;
6203;SDS011;3135;42.602;23.468;2023-12-20T14:18:51;22.42;;;8.60;;
6203;SDS011;3135;42.602;23.468;2023-12-20T14:21:17;23.43;;;9.20;;
6203;SDS011;3135;42.602;23.468;2023-12-20T14:23:43;27.85;;;13.55;;
6203;SDS011;3135;42.602;23.468;2023-12-20T14:26:08;11.73;;;5.27;;
6203;SDS011;3135;42.602;23.468;2023-12-20T14:28:40;5.28;;;2.78;;
6203;SDS011;3135;42.602;23.468;2023-12-20T14:31:06;16.63;;;7.57;;
6203;SDS011;3135;42.602;23.468;2023-12-20T14:33:31;93.63;;;32.13;;
6203;SDS011;3135;42.602;23.468;2023-12-20T14:35:57;40.60;;;15.90;;
6203;SDS011;3135;42.602;23.468;2023-12-20T14:38:22;67.67;;;23.90;;